Snow/Ice From: 16-12-2017 16:00 Until: 17-12-2017 16:00 warning for: Snow/Ice Level: Yellow info button

Although rather usual in this region, locally or potentially dangerous phenomena are expected. (such as local winds, summer thunderstorms, rising streams or high waves) Be aware and pay attention to the latest weather updates, especially if you carry out activities exposed to weather or close to a stream or shoreline. 


Meteo18 Weather Cam more information Meteo18 Weather Cam


Thunder radar more information blitzortung!


warning for Snow/Ice more information rain snow radar


Visit our other weather sites:

Template documentation
and downloads

And another site



Weather Underground History page Text

Daily Summary for May 11, 2017 Units:  Metric    English   Both
« Previous Day
Next Day »
Daily Weekly Monthly Yearly Custom
  High: Low: Average:
Temperature: 14.8 °C 8.8 °C 12.5 °C
Dew Point: 13.5 °C 7.6 °C 10.8 °C
Humidity: 96 % 73 % 90 %
Wind Speed: 16.1 km/h 0.0 km/h 1.8 km/h
Wind Gust: 22.5 km/h - -
Wind:- - SSE
Pressure: 1002.6 hPa 997.5 hPa -
Precipitation: 7.9 mm    
Historical Graphs
 
 
Tabular Data for May 11, 2017
Time Temperature Dew Point Pressure Wind Wind Speed Wind Gust Humidity Rainfall Rate (Hourly)
00:02 13.6 °C 11.6 °C 1002.6 hPa Calm     88 % 0.0 mm
00:07 13.4 °C 11.5 °C 1002.6 hPa Calm     88 % 0.0 mm
00:12 13.3 °C 11.4 °C 1002.6 hPa Calm     88 % 0.0 mm
00:17 13.4 °C 11.5 °C 1002.6 hPa Calm   1.6 km/h 88 % 0.0 mm
00:22 13.4 °C 11.6 °C 1002.6 hPa Calm   1.6 km/h 89 % 0.0 mm
00:27 13.4 °C 11.5 °C 1002.6 hPa Calm   1.6 km/h 88 % 0.0 mm
00:32 13.2 °C 11.3 °C 1002.6 hPa Calm   1.6 km/h 88 % 0.0 mm
00:37 13.2 °C 11.4 °C 1002.6 hPa Calm   1.6 km/h 89 % 0.0 mm
00:42 13.2 °C 11.4 °C 1002.6 hPa Calm   1.6 km/h 89 % 0.0 mm
00:47 13.1 °C 11.3 °C 1002.6 hPa Calm   1.6 km/h 89 % 0.0 mm
00:52 13.1 °C 11.3 °C 1002.3 hPa Calm     89 % 0.0 mm
00:57 13.1 °C 11.5 °C 1002.6 hPa Calm   1.6 km/h 90 % 0.0 mm
01:02 13.1 °C 11.3 °C 1002.3 hPa Calm   1.6 km/h 89 % 0.0 mm
01:12 12.9 °C 11.1 °C 1002.6 hPa Calm     89 % 0.0 mm
01:17 13.0 °C 11.4 °C 1002.3 hPa Calm     90 % 0.0 mm
01:22 13.1 °C 11.3 °C 1002.3 hPa Calm     89 % 0.0 mm
01:27 12.9 °C 11.1 °C 1002.3 hPa Calm     89 % 0.0 mm
01:32 12.9 °C 11.3 °C 1002.3 hPa Calm     90 % 0.0 mm
01:42 12.8 °C 11.0 °C 1001.9 hPa Calm     89 % 0.0 mm
01:47 12.7 °C 10.9 °C 1001.9 hPa Calm     89 % 0.0 mm
01:52 12.5 °C 10.7 °C 1001.9 hPa Calm     89 % 0.0 mm
01:57 12.4 °C 10.6 °C 1001.9 hPa Calm     89 % 0.0 mm
02:02 12.3 °C 10.7 °C 1001.9 hPa Calm     90 % 0.0 mm
02:12 12.4 °C 10.8 °C 1001.6 hPa Calm     90 % 0.0 mm
02:17 12.4 °C 10.6 °C 1001.6 hPa Calm     89 % 0.0 mm
02:22 12.3 °C 10.5 °C 1001.6 hPa Calm     89 % 0.0 mm
02:27 12.1 °C 10.3 °C 1001.2 hPa Calm     89 % 0.0 mm
02:32 11.9 °C 10.3 °C 1001.2 hPa Calm     90 % 0.0 mm
02:37 11.9 °C 10.5 °C 1001.2 hPa Calm     91 % 0.0 mm
02:42 11.9 °C 10.5 °C 1001.2 hPa Calm     91 % 0.0 mm
02:47 12.0 °C 10.4 °C 1001.2 hPa Calm     90 % 0.0 mm
02:52 11.9 °C 10.1 °C 1001.2 hPa Calm     89 % 0.0 mm
02:57 11.8 °C 10.0 °C 1001.2 hPa Calm     89 % 0.0 mm
03:02 11.6 °C 10.0 °C 1000.9 hPa Calm     90 % 0.0 mm
03:12 11.6 °C 10.2 °C 1000.9 hPa Calm     91 % 0.0 mm
03:17 11.6 °C 10.0 °C 1000.9 hPa Calm     90 % 0.0 mm
03:22 11.5 °C 9.7 °C 1000.9 hPa Calm     89 % 0.0 mm
03:27 11.3 °C 9.7 °C 1000.6 hPa Calm     90 % 0.0 mm
03:32 11.2 °C 9.6 °C 1000.6 hPa Calm     90 % 0.0 mm
03:37 11.2 °C 9.6 °C 1000.6 hPa Calm     90 % 0.0 mm
03:42 11.2 °C 9.6 °C 1000.6 hPa Calm     90 % 0.0 mm
03:47 11.0 °C 9.3 °C 1000.6 hPa Calm     89 % 0.0 mm
03:52 10.9 °C 9.3 °C 1000.2 hPa Calm     90 % 0.0 mm
03:57 10.9 °C 9.3 °C 1000.2 hPa Calm     90 % 0.0 mm
04:02 10.7 °C 9.0 °C 1000.6 hPa Calm     89 % 0.0 mm
04:12 10.4 °C 9.0 °C 1000.2 hPa Calm     91 % 0.0 mm
04:17 10.7 °C 9.3 °C 1000.2 hPa Calm     91 % 0.0 mm
04:22 10.7 °C 9.3 °C 999.9 hPa Calm     91 % 0.0 mm
04:27 10.6 °C 8.9 °C 999.9 hPa Calm     89 % 0.0 mm
04:32 10.3 °C 8.6 °C 1000.2 hPa Calm     89 % 0.0 mm
04:42 10.2 °C 9.0 °C 999.9 hPa NNE 3.2 km/h 3.2 km/h 92 % 0.0 mm
04:47 10.5 °C 9.1 °C 999.5 hPa NE 3.2 km/h 3.2 km/h 91 % 0.0 mm
04:52 10.6 °C 9.0 °C 999.5 hPa NNE 3.2 km/h 3.2 km/h 90 % 0.0 mm
04:57 10.4 °C 8.7 °C 999.5 hPa Calm   4.8 km/h 89 % 0.0 mm
05:02 10.3 °C 8.6 °C 999.5 hPa Calm   4.8 km/h 89 % 0.0 mm
05:12 10.2 °C 8.6 °C 999.5 hPa Calm   3.2 km/h 90 % 0.0 mm
05:17 10.0 °C 8.4 °C 999.5 hPa Calm   1.6 km/h 90 % 0.0 mm
05:22 9.9 °C 8.3 °C 999.5 hPa Calm   1.6 km/h 90 % 0.0 mm
05:32 9.8 °C 8.4 °C 999.5 hPa Calm   1.6 km/h 91 % 0.0 mm
05:37 9.7 °C 8.1 °C 999.5 hPa Calm   1.6 km/h 90 % 0.0 mm
05:42 9.5 °C 7.9 °C 999.5 hPa Calm   1.6 km/h 90 % 0.0 mm
05:47 9.4 °C 8.0 °C 999.2 hPa Calm     91 % 0.0 mm
05:52 9.3 °C 7.9 °C 999.2 hPa Calm     91 % 0.0 mm
05:57 9.2 °C 7.8 °C 999.5 hPa Calm     91 % 0.0 mm
06:02 9.1 °C 7.9 °C 999.5 hPa Calm     92 % 0.0 mm
06:07 9.1 °C 7.9 °C 999.2 hPa Calm     92 % 0.0 mm
06:12 9.1 °C 7.9 °C 999.2 hPa Calm     92 % 0.0 mm
06:17 9.1 °C 7.9 °C 999.2 hPa Calm     92 % 0.0 mm
06:22 9.0 °C 7.8 °C 999.2 hPa Calm     92 % 0.0 mm
06:27 8.9 °C 7.7 °C 999.2 hPa Calm     92 % 0.0 mm
06:32 8.8 °C 7.7 °C 999.2 hPa Calm     93 % 0.0 mm
06:42 8.8 °C 7.6 °C 998.9 hPa North 1.6 km/h   92 % 0.0 mm
06:47 8.9 °C 7.7 °C 998.9 hPa North 1.6 km/h 1.6 km/h 92 % 0.0 mm
06:52 9.2 °C 8.0 °C 998.9 hPa North 1.6 km/h 1.6 km/h 92 % 0.0 mm
06:57 9.2 °C 7.8 °C 998.9 hPa Calm   3.2 km/h 91 % 0.0 mm
07:02 9.2 °C 7.8 °C 998.9 hPa North 1.6 km/h 3.2 km/h 91 % 0.0 mm
07:12 9.5 °C 8.1 °C 998.9 hPa Calm   1.6 km/h 91 % 0.0 mm
07:17 9.6 °C 8.2 °C 998.9 hPa Calm   1.6 km/h 91 % 0.0 mm
07:22 9.7 °C 8.1 °C 998.9 hPa Calm   1.6 km/h 90 % 0.0 mm
07:27 10.0 °C 8.3 °C 998.9 hPa Calm   1.6 km/h 89 % 0.0 mm
07:32 10.2 °C 8.3 °C 998.9 hPa Calm   1.6 km/h 88 % 0.0 mm
07:42 10.8 °C 8.9 °C 998.9 hPa Calm   1.6 km/h 88 % 0.0 mm
07:52 11.2 °C 8.8 °C 998.9 hPa Calm     85 % 0.0 mm
07:57 11.2 °C 8.8 °C 998.5 hPa SE 1.6 km/h 1.6 km/h 85 % 0.0 mm
08:02 11.2 °C 8.6 °C 998.9 hPa Calm   1.6 km/h 84 % 0.0 mm
08:07 11.1 °C 8.3 °C 998.5 hPa East 1.6 km/h 3.2 km/h 83 % 0.0 mm
08:12 11.1 °C 8.5 °C 998.5 hPa Calm   3.2 km/h 84 % 0.0 mm
08:17 11.1 °C 8.5 °C 998.5 hPa Calm   4.8 km/h 84 % 0.0 mm
08:22 11.2 °C 8.6 °C 998.5 hPa Calm   4.8 km/h 84 % 0.0 mm
08:27 11.3 °C 8.7 °C 998.5 hPa Calm   1.6 km/h 84 % 0.0 mm
08:32 11.3 °C 8.5 °C 998.5 hPa Calm   1.6 km/h 83 % 0.0 mm
08:37 11.4 °C 8.4 °C 998.5 hPa Calm   1.6 km/h 82 % 0.0 mm
08:42 11.7 °C 8.7 °C 998.5 hPa Calm   1.6 km/h 82 % 0.0 mm
08:47 11.8 °C 8.8 °C 998.9 hPa Calm   1.6 km/h 82 % 0.0 mm
08:52 11.9 °C 8.7 °C 998.5 hPa Calm   1.6 km/h 81 % 0.0 mm
08:57 12.1 °C 8.9 °C 998.5 hPa Calm     81 % 0.0 mm
09:02 12.2 °C 9.2 °C 998.5 hPa Calm     82 % 0.0 mm
09:12 12.3 °C 9.1 °C 998.5 hPa East 1.6 km/h   81 % 0.0 mm
09:17 12.5 °C 9.3 °C 998.5 hPa Calm   4.8 km/h 81 % 0.0 mm
09:22 12.7 °C 9.5 °C 998.5 hPa Calm   4.8 km/h 81 % 0.0 mm
09:27 12.8 °C 9.2 °C 998.5 hPa Calm   1.6 km/h 79 % 0.0 mm
09:32 13.0 °C 9.3 °C 998.5 hPa Calm   1.6 km/h 78 % 0.0 mm
09:37 13.1 °C 9.2 °C 998.5 hPa SSW 1.6 km/h 3.2 km/h 77 % 0.0 mm
09:42 13.2 °C 9.1 °C 998.5 hPa Calm   3.2 km/h 76 % 0.0 mm
09:47 13.3 °C 9.0 °C 998.5 hPa SE 1.6 km/h 6.4 km/h 75 % 0.0 mm
09:52 13.4 °C 9.3 °C 998.5 hPa South 3.2 km/h 6.4 km/h 76 % 0.0 mm
09:57 13.4 °C 9.3 °C 998.5 hPa Calm   4.8 km/h 76 % 0.0 mm
10:02 13.6 °C 9.3 °C 998.5 hPa Calm   4.8 km/h 75 % 0.0 mm
10:12 13.7 °C 9.1 °C 998.5 hPa Calm   6.4 km/h 74 % 0.0 mm
10:17 13.7 °C 8.9 °C 998.5 hPa South 1.6 km/h 6.4 km/h 73 % 0.0 mm
10:22 13.8 °C 9.2 °C 998.5 hPa Calm   6.4 km/h 74 % 0.0 mm
10:27 13.8 °C 9.0 °C 998.5 hPa South 1.6 km/h 8.0 km/h 73 % 0.0 mm
10:32 13.9 °C 9.3 °C 998.5 hPa SE 1.6 km/h 8.0 km/h 74 % 0.0 mm
10:42 14.1 °C 9.5 °C 998.5 hPa SSW 3.2 km/h 9.7 km/h 74 % 0.0 mm
10:52 14.2 °C 9.4 °C 998.9 hPa SSW 6.4 km/h 9.7 km/h 73 % 0.0 mm
10:57 14.2 °C 9.6 °C 998.9 hPa SSE 3.2 km/h 14.5 km/h 74 % 0.0 mm
11:02 14.1 °C 9.3 °C 998.9 hPa SSE 12.9 km/h 14.5 km/h 73 % 0.0 mm
11:07 13.9 °C 9.7 °C 998.9 hPa SW 9.7 km/h 22.5 km/h 76 % 0.0 mm
11:12 13.3 °C 9.9 °C 999.2 hPa SSW 16.1 km/h 22.5 km/h 80 % 0.0 mm
11:17 12.7 °C 10.2 °C 999.2 hPa SW 9.7 km/h 20.9 km/h 85 % 0.5 mm
11:22 12.3 °C 10.2 °C 999.5 hPa SSW 9.7 km/h 20.9 km/h 87 % 0.5 mm
11:27 12.0 °C 10.2 °C 999.5 hPa SSW 11.3 km/h 20.9 km/h 89 % 1.3 mm
11:32 11.8 °C 10.2 °C 999.5 hPa SSW 11.3 km/h 17.7 km/h 90 % 1.5 mm
11:42 11.8 °C 10.5 °C 999.5 hPa SSW 4.8 km/h 17.7 km/h 92 % 2.0 mm
11:47 11.9 °C 10.8 °C 999.5 hPa South 1.6 km/h 12.9 km/h 93 % 2.3 mm
11:52 12.0 °C 10.9 °C 999.5 hPa Calm   8.0 km/h 93 % 2.5 mm
11:57 11.9 °C 10.8 °C 999.5 hPa SW 1.6 km/h 8.0 km/h 93 % 2.8 mm
12:02 12.0 °C 10.9 °C 999.5 hPa South 4.8 km/h 8.0 km/h 93 % 3.0 mm
12:07 11.9 °C 10.8 °C 999.5 hPa Calm   8.0 km/h 93 % 3.0 mm
12:12 12.1 °C 11.0 °C 999.5 hPa South 1.6 km/h 6.4 km/h 93 % 3.0 mm
12:17 12.1 °C 11.0 °C 999.2 hPa Calm   6.4 km/h 93 % 2.8 mm
12:22 12.1 °C 11.0 °C 999.2 hPa Calm   6.4 km/h 93 % 2.8 mm
12:27 12.3 °C 11.2 °C 999.2 hPa Calm   3.2 km/h 93 % 2.3 mm
12:32 12.4 °C 11.3 °C 999.2 hPa Calm   3.2 km/h 93 % 2.3 mm
12:37 12.6 °C 11.3 °C 999.2 hPa Calm   3.2 km/h 92 % 2.3 mm
12:42 12.6 °C 11.3 °C 999.2 hPa Calm   3.2 km/h 92 % 2.0 mm
12:47 12.8 °C 11.5 °C 999.2 hPa Calm   3.2 km/h 92 % 1.5 mm
12:52 12.8 °C 11.5 °C 999.2 hPa Calm   4.8 km/h 92 % 1.5 mm
12:57 12.9 °C 11.6 °C 998.9 hPa SSW 3.2 km/h 4.8 km/h 92 % 1.3 mm
13:02 12.9 °C 11.6 °C 998.9 hPa SSW 1.6 km/h 6.4 km/h 92 % 1.0 mm
13:12 13.2 °C 11.9 °C 998.9 hPa Calm   8.0 km/h 92 % 1.0 mm
13:17 13.3 °C 11.9 °C 998.5 hPa SW 1.6 km/h 11.3 km/h 91 % 0.8 mm
13:22 13.4 °C 11.8 °C 998.5 hPa SSW 6.4 km/h 11.3 km/h 90 % 0.5 mm
13:27 13.4 °C 11.8 °C 998.5 hPa SSW 4.8 km/h 11.3 km/h 90 % 0.5 mm
13:32 13.4 °C 11.8 °C 998.5 hPa SSE 4.8 km/h 9.7 km/h 90 % 0.5 mm
13:42 13.4 °C 11.8 °C 998.5 hPa SE 4.8 km/h 9.7 km/h 90 % 0.5 mm
13:47 13.4 °C 11.8 °C 998.5 hPa SSW 3.2 km/h 11.3 km/h 90 % 0.5 mm
13:52 13.4 °C 11.8 °C 998.5 hPa SE 3.2 km/h 11.3 km/h 90 % 0.5 mm
13:57 13.3 °C 11.7 °C 998.5 hPa East 3.2 km/h 11.3 km/h 90 % 0.5 mm
14:02 13.2 °C 11.6 °C 998.5 hPa SE 6.4 km/h 16.1 km/h 90 % 0.5 mm
14:07 13.3 °C 11.9 °C 998.5 hPa East 1.6 km/h 16.1 km/h 91 % 0.5 mm
14:12 13.3 °C 11.9 °C 998.5 hPa SSE 4.8 km/h 16.1 km/h 91 % 0.5 mm
14:17 13.3 °C 11.9 °C 998.2 hPa ESE 1.6 km/h 9.7 km/h 91 % 0.5 mm
14:22 13.4 °C 12.1 °C 998.2 hPa South 6.4 km/h 9.7 km/h 92 % 0.5 mm
14:27 13.4 °C 12.0 °C 998.2 hPa ESE 3.2 km/h 9.7 km/h 91 % 0.5 mm
14:32 13.5 °C 12.1 °C 998.2 hPa SSE 1.6 km/h 9.7 km/h 91 % 0.5 mm
14:37 13.6 °C 12.2 °C 998.2 hPa SW 3.2 km/h 9.7 km/h 91 % 0.5 mm
14:42 13.6 °C 12.2 °C 998.2 hPa SSW 4.8 km/h 8.0 km/h 91 % 0.5 mm
14:52 13.5 °C 12.2 °C 998.2 hPa Calm   9.7 km/h 92 % 0.5 mm
14:57 13.6 °C 12.3 °C 998.2 hPa SSE 3.2 km/h 9.7 km/h 92 % 0.8 mm
15:02 13.5 °C 12.2 °C 998.2 hPa SE 3.2 km/h 9.7 km/h 92 % 0.5 mm
15:07 13.5 °C 12.2 °C 998.2 hPa South 3.2 km/h 9.7 km/h 92 % 0.5 mm
15:12 13.4 °C 12.1 °C 998.2 hPa SE 4.8 km/h 9.7 km/h 92 % 0.5 mm
15:17 13.5 °C 12.2 °C 998.2 hPa SE 9.7 km/h 12.9 km/h 92 % 0.5 mm
15:22 13.6 °C 12.5 °C 998.2 hPa ESE 3.2 km/h 12.9 km/h 93 % 0.5 mm
15:27 13.6 °C 12.5 °C 998.2 hPa SSE 3.2 km/h 12.9 km/h 93 % 0.5 mm
15:32 13.6 °C 12.3 °C 998.2 hPa South 3.2 km/h 12.9 km/h 92 % 0.5 mm
15:37 13.5 °C 12.2 °C 997.9 hPa SE 6.4 km/h 11.3 km/h 92 % 0.5 mm
15:42 13.3 °C 12.0 °C 997.9 hPa ESE 1.6 km/h 11.3 km/h 92 % 0.8 mm
15:47 13.4 °C 12.3 °C 997.9 hPa Calm   11.3 km/h 93 % 0.5 mm
15:52 13.4 °C 12.3 °C 997.9 hPa SE 6.4 km/h 9.7 km/h 93 % 0.5 mm
15:57 13.4 °C 12.3 °C 997.9 hPa SE 4.8 km/h 8.0 km/h 93 % 0.8 mm
16:02 13.4 °C 12.3 °C 997.9 hPa ESE 3.2 km/h 8.0 km/h 93 % 0.8 mm
16:12 13.6 °C 12.7 °C 997.9 hPa South 6.4 km/h 6.4 km/h 94 % 1.0 mm
16:17 13.6 °C 12.7 °C 997.9 hPa ESE 3.2 km/h 6.4 km/h 94 % 1.3 mm
16:22 13.7 °C 12.8 °C 997.9 hPa SSW 1.6 km/h 6.4 km/h 94 % 1.3 mm
16:27 13.7 °C 12.8 °C 997.9 hPa SW 3.2 km/h 8.0 km/h 94 % 1.3 mm
16:32 13.8 °C 12.9 °C 997.9 hPa Calm   8.0 km/h 94 % 1.3 mm
16:42 14.0 °C 12.9 °C 997.5 hPa South 1.6 km/h 8.0 km/h 93 % 0.8 mm
16:47 13.9 °C 12.8 °C 997.5 hPa SSE 1.6 km/h 9.7 km/h 93 % 0.8 mm
16:52 13.9 °C 12.8 °C 997.9 hPa SSW 3.2 km/h 9.7 km/h 93 % 0.5 mm
16:57 14.1 °C 13.0 °C 997.9 hPa SE 3.2 km/h 14.5 km/h 93 % 0.5 mm
17:02 14.1 °C 13.0 °C 997.9 hPa ESE 1.6 km/h 14.5 km/h 93 % 0.3 mm
17:07 14.1 °C 13.0 °C 997.5 hPa East 1.6 km/h 9.7 km/h 93 % 0.3 mm
17:12 14.1 °C 13.0 °C 997.5 hPa SE 1.6 km/h 9.7 km/h 93 % 0.3 mm
17:17 14.1 °C 13.0 °C 997.5 hPa ESE 1.6 km/h 8.0 km/h 93 % 0.3 mm
17:22 14.1 °C 13.0 °C 997.5 hPa SSE 3.2 km/h 9.7 km/h 93 % 0.3 mm
17:27 13.9 °C 12.8 °C 997.5 hPa South 1.6 km/h 9.7 km/h 93 % 0.5 mm
17:32 13.9 °C 12.8 °C 997.9 hPa SSW 4.8 km/h 12.9 km/h 93 % 0.5 mm
17:37 13.9 °C 12.8 °C 997.9 hPa SSE 1.6 km/h 12.9 km/h 93 % 0.5 mm
17:42 13.8 °C 12.7 °C 997.9 hPa ESE 3.2 km/h 12.9 km/h 93 % 0.5 mm
17:47 13.8 °C 12.7 °C 997.9 hPa SSE 3.2 km/h 12.9 km/h 93 % 0.5 mm
17:52 13.8 °C 12.9 °C 997.9 hPa SSE 1.6 km/h 12.9 km/h 94 % 0.5 mm
17:57 14.0 °C 13.0 °C 997.5 hPa SSE 1.6 km/h 11.3 km/h 94 % 0.5 mm
18:02 14.1 °C 13.1 °C 997.9 hPa South 4.8 km/h 8.0 km/h 94 % 0.5 mm
18:07 14.3 °C 13.3 °C 997.5 hPa SSW 6.4 km/h 8.0 km/h 94 % 0.3 mm
18:12 14.4 °C 13.3 °C 997.5 hPa SSW 1.6 km/h 8.0 km/h 93 % 0.3 mm
18:22 14.4 °C 13.3 °C 997.5 hPa South 4.8 km/h 11.3 km/h 93 % 0.0 mm
18:32 14.6 °C 13.5 °C 997.5 hPa SW 4.8 km/h 9.7 km/h 93 % 0.0 mm
18:42 14.8 °C 13.5 °C 997.5 hPa SSE 9.7 km/h 12.9 km/h 92 % 0.0 mm
18:47 14.8 °C 13.5 °C 997.5 hPa WSW 3.2 km/h 12.9 km/h 92 % 0.0 mm
18:52 14.8 °C 13.5 °C 997.5 hPa SSE 4.8 km/h 11.3 km/h 92 % 0.0 mm
18:57 14.8 °C 13.5 °C 997.5 hPa SE 1.6 km/h 11.3 km/h 92 % 0.0 mm
19:02 14.8 °C 13.5 °C 997.5 hPa Calm   11.3 km/h 92 % 0.0 mm
19:12 14.6 °C 13.3 °C 997.5 hPa Calm   11.3 km/h 92 % 0.0 mm
19:17 14.5 °C 13.2 °C 997.5 hPa Calm   11.3 km/h 92 % 0.0 mm
19:22 14.4 °C 13.1 °C 997.5 hPa SSE 3.2 km/h 9.7 km/h 92 % 0.0 mm
19:27 14.3 °C 13.2 °C 997.5 hPa ESE 6.4 km/h 11.3 km/h 93 % 0.0 mm
19:32 14.2 °C 13.1 °C 997.5 hPa East 4.8 km/h 11.3 km/h 93 % 0.0 mm
19:42 14.1 °C 13.0 °C 997.5 hPa ENE 4.8 km/h 11.3 km/h 93 % 0.0 mm
19:47 13.9 °C 12.8 °C 997.5 hPa South 1.6 km/h 11.3 km/h 93 % 0.0 mm
19:52 13.8 °C 12.7 °C 997.5 hPa SSE 1.6 km/h 11.3 km/h 93 % 0.0 mm
19:57 13.7 °C 12.6 °C 997.5 hPa SE 6.4 km/h 11.3 km/h 93 % 0.0 mm
20:02 13.6 °C 12.5 °C 997.9 hPa SE 3.2 km/h 11.3 km/h 93 % 0.0 mm
20:12 13.4 °C 12.3 °C 997.9 hPa ESE 1.6 km/h 9.7 km/h 93 % 0.0 mm
20:17 13.4 °C 12.5 °C 997.9 hPa SE 3.2 km/h 9.7 km/h 94 % 0.0 mm
20:27 13.3 °C 12.4 °C 997.9 hPa SSW 3.2 km/h 9.7 km/h 94 % 0.0 mm
20:32 13.2 °C 12.3 °C 998.2 hPa SSE 4.8 km/h 8.0 km/h 94 % 0.0 mm
20:37 13.2 °C 12.3 °C 998.2 hPa SSW 1.6 km/h 8.0 km/h 94 % 0.0 mm
20:42 13.2 °C 12.3 °C 998.2 hPa Calm   8.0 km/h 94 % 0.0 mm
20:52 13.1 °C 12.2 °C 998.5 hPa South 4.8 km/h 4.8 km/h 94 % 0.3 mm
20:57 13.1 °C 12.2 °C 998.5 hPa SSE 1.6 km/h 6.4 km/h 94 % 0.3 mm
21:02 13.1 °C 12.2 °C 998.5 hPa Calm   6.4 km/h 94 % 0.3 mm
21:12 13.0 °C 12.2 °C 998.5 hPa SE 1.6 km/h 4.8 km/h 95 % 0.3 mm
21:17 12.9 °C 12.1 °C 998.5 hPa SSE 1.6 km/h 3.2 km/h 95 % 0.3 mm
21:22 12.9 °C 12.1 °C 998.5 hPa Calm   6.4 km/h 95 % 0.3 mm
21:32 12.8 °C 12.0 °C 998.5 hPa Calm   6.4 km/h 95 % 0.3 mm
21:42 12.8 °C 12.0 °C 998.9 hPa SSE 3.2 km/h 3.2 km/h 95 % 0.3 mm
21:47 12.8 °C 12.0 °C 998.9 hPa Calm   3.2 km/h 95 % 0.0 mm
21:52 12.7 °C 11.9 °C 999.2 hPa Calm   3.2 km/h 95 % 0.0 mm
21:57 12.7 °C 11.9 °C 999.2 hPa Calm   4.8 km/h 95 % 0.0 mm
22:02 12.6 °C 11.8 °C 999.2 hPa SSE 3.2 km/h 4.8 km/h 95 % 0.0 mm
22:07 12.6 °C 11.8 °C 999.5 hPa Calm   3.2 km/h 95 % 0.0 mm
22:12 12.6 °C 11.8 °C 999.5 hPa Calm   3.2 km/h 95 % 0.0 mm
22:17 12.6 °C 11.8 °C 999.5 hPa Calm   3.2 km/h 95 % 0.0 mm
22:22 12.6 °C 11.8 °C 999.5 hPa Calm   4.8 km/h 95 % 0.0 mm
22:32 12.5 °C 11.9 °C 999.5 hPa Calm   6.4 km/h 96 % 0.0 mm
22:42 12.4 °C 11.8 °C 999.5 hPa SSW 1.6 km/h 4.8 km/h 96 % 0.0 mm
22:47 12.4 °C 11.8 °C 999.5 hPa SSW 1.6 km/h 4.8 km/h 96 % 0.0 mm
22:52 12.4 °C 11.8 °C 999.5 hPa Calm   4.8 km/h 96 % 0.3 mm
22:57 12.4 °C 11.8 °C 999.5 hPa SW 3.2 km/h 4.8 km/h 96 % 0.3 mm
23:02 12.4 °C 11.8 °C 999.5 hPa Calm   4.8 km/h 96 % 0.3 mm
23:07 12.4 °C 11.8 °C 999.5 hPa SSW 1.6 km/h 3.2 km/h 96 % 0.3 mm
23:12 12.4 °C 11.8 °C 999.5 hPa Calm   4.8 km/h 96 % 0.3 mm
23:32 12.4 °C 11.8 °C 999.9 hPa SW 1.6 km/h 3.2 km/h 96 % 0.3 mm
23:42 12.4 °C 11.8 °C 999.9 hPa Calm   6.4 km/h 96 % 1.0 mm
23:47 12.4 °C 11.8 °C 999.9 hPa SSE 1.6 km/h 6.4 km/h 96 % 0.8 mm
23:57 12.4 °C 11.8 °C 999.9 hPa SSW 1.6 km/h 4.8 km/h 96 % 0.8 mm
Meteo18
Compliments of Weather Underground - 4 mb

Script developed by  Jim McMurry - jmcmurry@mwt.net Adapted for the template by  Wim van der Kuil - Leuven-Template.eu

You find our weather info also at:

European Weather Network

Weather Underground

Equipment we use:

Weather-station
Davis Vue

Weather-program
Meteohub

Weather-server
Raspberry PI 2 B+

Provider
1 and 1

Davis Vue

Meteohub

Raspberry PI 2 B+

1 and 1